sensor_id;sensor_type;location;lat;lon;timestamp;temperature;humidity
8872;DHT22;4472;52.092;9.820;2022-08-21T00:00:23;16.70;99.90
8872;DHT22;4472;52.092;9.820;2022-08-21T00:05:44;16.50;99.90
8872;DHT22;4472;52.092;9.820;2022-08-21T00:08:31;16.40;99.90
8872;DHT22;4472;52.092;9.820;2022-08-21T00:11:18;16.40;99.90
8872;DHT22;4472;52.092;9.820;2022-08-21T00:14:08;16.40;99.90
8872;DHT22;4472;52.092;9.820;2022-08-21T00:16:55;16.40;99.90
8872;DHT22;4472;52.092;9.820;2022-08-21T00:19:42;16.40;99.90
8872;DHT22;4472;52.092;9.820;2022-08-21T00:22:31;16.40;99.90
8872;DHT22;4472;52.092;9.820;2022-08-21T00:25:19;16.30;99.90
8872;DHT22;4472;52.092;9.820;2022-08-21T00:28:06;16.30;99.90
8872;DHT22;4472;52.092;9.820;2022-08-21T00:30:53;16.30;99.90
8872;DHT22;4472;52.092;9.820;2022-08-21T00:33:40;16.30;99.90
8872;DHT22;4472;52.092;9.820;2022-08-21T00:36:27;16.30;99.90
8872;DHT22;4472;52.092;9.820;2022-08-21T00:39:16;16.20;99.90
8872;DHT22;4472;52.092;9.820;2022-08-21T00:42:04;16.20;99.90
8872;DHT22;4472;52.092;9.820;2022-08-21T00:44:51;16.20;99.90
8872;DHT22;4472;52.092;9.820;2022-08-21T00:47:38;16.20;99.90
8872;DHT22;4472;52.092;9.820;2022-08-21T00:50:29;16.10;99.90
8872;DHT22;4472;52.092;9.820;2022-08-21T00:53:17;16.10;99.90
8872;DHT22;4472;52.092;9.820;2022-08-21T00:56:09;16.00;99.90
8872;DHT22;4472;52.092;9.820;2022-08-21T00:59:05;16.00;99.90
8872;DHT22;4472;52.092;9.820;2022-08-21T01:01:53;15.90;99.90
8872;DHT22;4472;52.092;9.820;2022-08-21T01:04:40;15.80;99.90
8872;DHT22;4472;52.092;9.820;2022-08-21T01:07:28;15.80;99.90
8872;DHT22;4472;52.092;9.820;2022-08-21T01:10:16;15.80;99.90
8872;DHT22;4472;52.092;9.820;2022-08-21T01:13:06;15.80;99.90
8872;DHT22;4472;52.092;9.820;2022-08-21T01:15:57;15.80;99.90
8872;DHT22;4472;52.092;9.820;2022-08-21T01:18:45;15.70;99.90
8872;DHT22;4472;52.092;9.820;2022-08-21T01:21:34;15.70;99.90
8872;DHT22;4472;52.092;9.820;2022-08-21T01:24:22;15.60;99.90
8872;DHT22;4472;52.092;9.820;2022-08-21T01:27:09;15.50;99.90
8872;DHT22;4472;52.092;9.820;2022-08-21T01:29:58;15.50;99.90
8872;DHT22;4472;52.092;9.820;2022-08-21T01:32:48;15.40;99.90
8872;DHT22;4472;52.092;9.820;2022-08-21T01:35:35;15.30;99.90
8872;DHT22;4472;52.092;9.820;2022-08-21T01:38:24;15.30;99.90
8872;DHT22;4472;52.092;9.820;2022-08-21T01:41:11;15.20;99.90
8872;DHT22;4472;52.092;9.820;2022-08-21T01:43:58;15.10;99.90
8872;DHT22;4472;52.092;9.820;2022-08-21T01:46:46;15.10;99.90
8872;DHT22;4472;52.092;9.820;2022-08-21T01:49:34;15.00;99.90
8872;DHT22;4472;52.092;9.820;2022-08-21T01:52:21;15.00;99.90
8872;DHT22;4472;52.092;9.820;2022-08-21T01:55:11;14.90;99.90
8872;DHT22;4472;52.092;9.820;2022-08-21T01:57:59;14.90;99.90
8872;DHT22;4472;52.092;9.820;2022-08-21T02:00:46;14.80;99.90
8872;DHT22;4472;52.092;9.820;2022-08-21T02:03:35;14.80;99.90
8872;DHT22;4472;52.092;9.820;2022-08-21T02:06:22;14.80;99.90
8872;DHT22;4472;52.092;9.820;2022-08-21T02:09:11;14.80;99.90
8872;DHT22;4472;52.092;9.820;2022-08-21T02:11:59;14.80;99.90
8872;DHT22;4472;52.092;9.820;2022-08-21T02:14:46;14.80;99.90
8872;DHT22;4472;52.092;9.820;2022-08-21T02:17:39;14.70;99.90
8872;DHT22;4472;52.092;9.820;2022-08-21T02:20:29;14.70;99.90
8872;DHT22;4472;52.092;9.820;2022-08-21T02:23:16;14.70;99.90
8872;DHT22;4472;52.092;9.820;2022-08-21T02:26:06;14.70;99.90
8872;DHT22;4472;52.092;9.820;2022-08-21T02:28:54;14.70;99.90
8872;DHT22;4472;52.092;9.820;2022-08-21T02:31:41;14.70;99.90
8872;DHT22;4472;52.092;9.820;2022-08-21T02:34:29;14.70;99.90
8872;DHT22;4472;52.092;9.820;2022-08-21T02:37:16;14.70;99.90
8872;DHT22;4472;52.092;9.820;2022-08-21T02:40:04;14.70;99.90
8872;DHT22;4472;52.092;9.820;2022-08-21T02:42:51;14.60;99.90
8872;DHT22;4472;52.092;9.820;2022-08-21T02:45:40;14.60;99.90
8872;DHT22;4472;52.092;9.820;2022-08-21T02:48:30;14.60;99.90
8872;DHT22;4472;52.092;9.820;2022-08-21T02:51:19;14.60;99.90
8872;DHT22;4472;52.092;9.820;2022-08-21T02:54:08;14.60;99.90
8872;DHT22;4472;52.092;9.820;2022-08-21T02:56:58;14.60;99.90
8872;DHT22;4472;52.092;9.820;2022-08-21T02:59:45;14.60;99.90
8872;DHT22;4472;52.092;9.820;2022-08-21T03:02:34;14.60;99.90
8872;DHT22;4472;52.092;9.820;2022-08-21T03:05:22;14.60;99.90
8872;DHT22;4472;52.092;9.820;2022-08-21T03:08:12;14.50;99.90
8872;DHT22;4472;52.092;9.820;2022-08-21T03:10:59;14.60;99.90
8872;DHT22;4472;52.092;9.820;2022-08-21T03:13:47;14.60;99.90
8872;DHT22;4472;52.092;9.820;2022-08-21T03:16:34;14.50;99.90
8872;DHT22;4472;52.092;9.820;2022-08-21T03:19:23;14.50;99.90
8872;DHT22;4472;52.092;9.820;2022-08-21T03:22:10;14.50;99.90
8872;DHT22;4472;52.092;9.820;2022-08-21T03:24:57;14.50;99.90
8872;DHT22;4472;52.092;9.820;2022-08-21T03:27:45;14.40;99.90
8872;DHT22;4472;52.092;9.820;2022-08-21T03:30:33;14.40;99.90
8872;DHT22;4472;52.092;9.820;2022-08-21T03:33:20;14.30;99.90
8872;DHT22;4472;52.092;9.820;2022-08-21T03:36:10;14.20;99.90
8872;DHT22;4472;52.092;9.820;2022-08-21T03:38:57;14.20;99.90
8872;DHT22;4472;52.092;9.820;2022-08-21T03:41:44;14.20;99.90
8872;DHT22;4472;52.092;9.820;2022-08-21T03:44:33;14.20;99.90
8872;DHT22;4472;52.092;9.820;2022-08-21T03:47:20;14.20;99.90
8872;DHT22;4472;52.092;9.820;2022-08-21T03:50:09;14.20;99.90
8872;DHT22;4472;52.092;9.820;2022-08-21T03:52:58;14.20;99.90
8872;DHT22;4472;52.092;9.820;2022-08-21T03:55:47;14.20;99.90
8872;DHT22;4472;52.092;9.820;2022-08-21T03:58:34;14.10;99.90
8872;DHT22;4472;52.092;9.820;2022-08-21T04:01:21;14.10;99.90
8872;DHT22;4472;52.092;9.820;2022-08-21T04:04:08;14.00;99.90
8872;DHT22;4472;52.092;9.820;2022-08-21T04:06:56;14.00;99.90
8872;DHT22;4472;52.092;9.820;2022-08-21T04:09:45;14.00;99.90
8872;DHT22;4472;52.092;9.820;2022-08-21T04:12:32;14.00;99.90
8872;DHT22;4472;52.092;9.820;2022-08-21T04:15:21;13.90;99.90
8872;DHT22;4472;52.092;9.820;2022-08-21T04:18:10;13.90;99.90
8872;DHT22;4472;52.092;9.820;2022-08-21T04:20:58;13.90;99.90
8872;DHT22;4472;52.092;9.820;2022-08-21T04:23:46;13.90;99.90
8872;DHT22;4472;52.092;9.820;2022-08-21T04:26:34;13.90;99.90
8872;DHT22;4472;52.092;9.820;2022-08-21T04:29:22;13.90;99.90
8872;DHT22;4472;52.092;9.820;2022-08-21T04:32:10;13.50;99.90
8872;DHT22;4472;52.092;9.820;2022-08-21T04:34:58;14.00;99.90
8872;DHT22;4472;52.092;9.820;2022-08-21T04:37:46;14.00;99.90
8872;DHT22;4472;52.092;9.820;2022-08-21T04:40:33;14.00;99.90
8872;DHT22;4472;52.092;9.820;2022-08-21T04:43:22;14.10;99.90
8872;DHT22;4472;52.092;9.820;2022-08-21T04:46:09;14.10;99.90
8872;DHT22;4472;52.092;9.820;2022-08-21T04:48:57;14.20;99.90
8872;DHT22;4472;52.092;9.820;2022-08-21T04:51:44;14.20;99.90
8872;DHT22;4472;52.092;9.820;2022-08-21T04:54:31;14.20;99.90
8872;DHT22;4472;52.092;9.820;2022-08-21T04:57:19;14.10;99.90
8872;DHT22;4472;52.092;9.820;2022-08-21T05:00:09;14.10;99.90
8872;DHT22;4472;52.092;9.820;2022-08-21T05:03:00;14.10;99.90
8872;DHT22;4472;52.092;9.820;2022-08-21T05:05:48;14.10;99.90
8872;DHT22;4472;52.092;9.820;2022-08-21T05:08:36;14.10;99.90
8872;DHT22;4472;52.092;9.820;2022-08-21T05:11:23;14.20;99.90
8872;DHT22;4472;52.092;9.820;2022-08-21T05:14:12;14.20;99.90
8872;DHT22;4472;52.092;9.820;2022-08-21T05:17:00;14.20;99.90
8872;DHT22;4472;52.092;9.820;2022-08-21T05:19:47;14.30;99.90
8872;DHT22;4472;52.092;9.820;2022-08-21T05:22:35;14.40;99.90
8872;DHT22;4472;52.092;9.820;2022-08-21T05:25:22;14.50;99.90
8872;DHT22;4472;52.092;9.820;2022-08-21T05:28:10;14.60;99.90
8872;DHT22;4472;52.092;9.820;2022-08-21T05:30:58;14.80;99.90
8872;DHT22;4472;52.092;9.820;2022-08-21T05:33:46;14.90;99.90
8872;DHT22;4472;52.092;9.820;2022-08-21T05:36:34;15.00;99.90
8872;DHT22;4472;52.092;9.820;2022-08-21T05:39:21;15.10;99.90
8872;DHT22;4472;52.092;9.820;2022-08-21T05:42:08;15.30;99.90
8872;DHT22;4472;52.092;9.820;2022-08-21T05:44:55;15.40;99.90
8872;DHT22;4472;52.092;9.820;2022-08-21T05:47:42;15.70;99.90
8872;DHT22;4472;52.092;9.820;2022-08-21T05:50:33;15.80;99.90
8872;DHT22;4472;52.092;9.820;2022-08-21T05:53:22;16.00;99.90
8872;DHT22;4472;52.092;9.820;2022-08-21T05:56:10;16.10;99.90
8872;DHT22;4472;52.092;9.820;2022-08-21T05:58:58;16.30;99.90
8872;DHT22;4472;52.092;9.820;2022-08-21T06:01:45;16.50;99.90
8872;DHT22;4472;52.092;9.820;2022-08-21T06:04:38;16.70;99.90
8872;DHT22;4472;52.092;9.820;2022-08-21T06:07:27;16.80;99.90
8872;DHT22;4472;52.092;9.820;2022-08-21T06:10:14;17.00;99.90
8872;DHT22;4472;52.092;9.820;2022-08-21T06:13:02;17.30;99.90
8872;DHT22;4472;52.092;9.820;2022-08-21T06:15:49;17.40;99.90
8872;DHT22;4472;52.092;9.820;2022-08-21T06:18:37;17.60;99.90
8872;DHT22;4472;52.092;9.820;2022-08-21T06:21:24;17.70;99.90
8872;DHT22;4472;52.092;9.820;2022-08-21T06:24:13;17.90;99.90
8872;DHT22;4472;52.092;9.820;2022-08-21T06:27:04;17.90;99.90
8872;DHT22;4472;52.092;9.820;2022-08-21T06:29:52;18.00;99.90
8872;DHT22;4472;52.092;9.820;2022-08-21T06:32:40;18.00;99.90
8872;DHT22;4472;52.092;9.820;2022-08-21T06:35:27;18.20;99.90
8872;DHT22;4472;52.092;9.820;2022-08-21T06:38:15;17.90;99.90
8872;DHT22;4472;52.092;9.820;2022-08-21T06:41:07;18.00;99.90
8872;DHT22;4472;52.092;9.820;2022-08-21T06:43:55;17.70;99.90
8872;DHT22;4472;52.092;9.820;2022-08-21T06:46:42;17.70;99.90
8872;DHT22;4472;52.092;9.820;2022-08-21T06:49:29;17.60;99.90
8872;DHT22;4472;52.092;9.820;2022-08-21T06:52:16;17.60;99.90
8872;DHT22;4472;52.092;9.820;2022-08-21T06:55:05;17.60;99.90
8872;DHT22;4472;52.092;9.820;2022-08-21T06:57:54;17.60;99.90
8872;DHT22;4472;52.092;9.820;2022-08-21T07:00:44;17.60;99.90
8872;DHT22;4472;52.092;9.820;2022-08-21T07:03:34;17.50;99.90
8872;DHT22;4472;52.092;9.820;2022-08-21T07:06:21;17.60;99.90
8872;DHT22;4472;52.092;9.820;2022-08-21T07:11:57;17.80;99.90
8872;DHT22;4472;52.092;9.820;2022-08-21T07:14:45;18.00;99.90
8872;DHT22;4472;52.092;9.820;2022-08-21T07:17:32;18.20;99.90
8872;DHT22;4472;52.092;9.820;2022-08-21T07:20:20;18.40;99.90
8872;DHT22;4472;52.092;9.820;2022-08-21T07:23:09;18.70;99.90
8872;DHT22;4472;52.092;9.820;2022-08-21T07:25:57;18.80;99.90
8872;DHT22;4472;52.092;9.820;2022-08-21T07:28:45;19.00;99.90
8872;DHT22;4472;52.092;9.820;2022-08-21T07:31:33;19.10;99.90
8872;DHT22;4472;52.092;9.820;2022-08-21T07:34:21;19.20;99.90
8872;DHT22;4472;52.092;9.820;2022-08-21T07:37:08;19.30;99.90
8872;DHT22;4472;52.092;9.820;2022-08-21T07:39:55;19.50;99.90
8872;DHT22;4472;52.092;9.820;2022-08-21T07:42:44;19.60;99.90
8872;DHT22;4472;52.092;9.820;2022-08-21T07:45:32;19.70;99.90
8872;DHT22;4472;52.092;9.820;2022-08-21T07:48:22;19.80;99.90
8872;DHT22;4472;52.092;9.820;2022-08-21T07:51:13;20.00;99.90
8872;DHT22;4472;52.092;9.820;2022-08-21T07:54:00;20.10;99.90
8872;DHT22;4472;52.092;9.820;2022-08-21T07:56:47;20.20;99.90
8872;DHT22;4472;52.092;9.820;2022-08-21T07:59:35;20.30;99.90
8872;DHT22;4472;52.092;9.820;2022-08-21T08:02:23;20.40;99.90
8872;DHT22;4472;52.092;9.820;2022-08-21T08:05:13;20.50;99.90
8872;DHT22;4472;52.092;9.820;2022-08-21T08:08:00;20.60;99.90
8872;DHT22;4472;52.092;9.820;2022-08-21T08:10:47;20.60;99.90
8872;DHT22;4472;52.092;9.820;2022-08-21T08:13:38;20.70;99.90
8872;DHT22;4472;52.092;9.820;2022-08-21T08:16:26;20.90;99.90
8872;DHT22;4472;52.092;9.820;2022-08-21T08:19:13;21.00;99.90
8872;DHT22;4472;52.092;9.820;2022-08-21T08:22:11;21.10;99.90
8872;DHT22;4472;52.092;9.820;2022-08-21T08:24:58;21.10;99.90
8872;DHT22;4472;52.092;9.820;2022-08-21T08:27:46;21.20;99.90
8872;DHT22;4472;52.092;9.820;2022-08-21T08:30:33;21.20;99.90
8872;DHT22;4472;52.092;9.820;2022-08-21T08:33:21;21.30;99.90
8872;DHT22;4472;52.092;9.820;2022-08-21T08:36:13;21.40;99.90
8872;DHT22;4472;52.092;9.820;2022-08-21T08:39:03;21.50;99.90
8872;DHT22;4472;52.092;9.820;2022-08-21T08:41:58;21.60;99.70
8872;DHT22;4472;52.092;9.820;2022-08-21T08:44:48;21.70;98.50
8872;DHT22;4472;52.092;9.820;2022-08-21T08:47:38;21.80;98.30
8872;DHT22;4472;52.092;9.820;2022-08-21T08:50:29;22.00;97.40
8872;DHT22;4472;52.092;9.820;2022-08-21T08:53:22;22.00;96.60
8872;DHT22;4472;52.092;9.820;2022-08-21T08:56:11;22.10;96.20
8872;DHT22;4472;52.092;9.820;2022-08-21T08:59:02;22.30;96.00
8872;DHT22;4472;52.092;9.820;2022-08-21T09:01:49;22.40;96.00
8872;DHT22;4472;52.092;9.820;2022-08-21T09:04:37;22.50;95.10
8872;DHT22;4472;52.092;9.820;2022-08-21T09:07:32;22.60;95.10
8872;DHT22;4472;52.092;9.820;2022-08-21T09:10:35;22.60;94.30
8872;DHT22;4472;52.092;9.820;2022-08-21T09:13:36;22.70;93.40
8872;DHT22;4472;52.092;9.820;2022-08-21T09:16:31;22.80;93.20
8872;DHT22;4472;52.092;9.820;2022-08-21T09:19:31;22.90;92.30
8872;DHT22;4472;52.092;9.820;2022-08-21T09:22:34;22.90;92.20
8872;DHT22;4472;52.092;9.820;2022-08-21T09:25:27;23.00;91.90
8872;DHT22;4472;52.092;9.820;2022-08-21T09:28:14;23.10;91.40
8872;DHT22;4472;52.092;9.820;2022-08-21T09:31:06;23.10;91.60
8872;DHT22;4472;52.092;9.820;2022-08-21T09:34:01;23.10;90.50
8872;DHT22;4472;52.092;9.820;2022-08-21T09:36:50;23.20;90.70
8872;DHT22;4472;52.092;9.820;2022-08-21T09:39:39;23.30;90.80
8872;DHT22;4472;52.092;9.820;2022-08-21T09:42:28;23.40;90.70
8872;DHT22;4472;52.092;9.820;2022-08-21T09:45:18;23.50;90.20
8872;DHT22;4472;52.092;9.820;2022-08-21T09:48:11;23.50;88.90
8872;DHT22;4472;52.092;9.820;2022-08-21T09:51:06;23.50;88.60
8872;DHT22;4472;52.092;9.820;2022-08-21T09:54:00;23.60;88.70
8872;DHT22;4472;52.092;9.820;2022-08-21T09:56:59;23.70;89.10
8872;DHT22;4472;52.092;9.820;2022-08-21T10:00:10;23.80;88.00
8872;DHT22;4472;52.092;9.820;2022-08-21T10:03:10;23.70;88.40
8872;DHT22;4472;52.092;9.820;2022-08-21T10:06:00;23.60;89.90
8872;DHT22;4472;52.092;9.820;2022-08-21T10:08:51;23.60;90.10
8872;DHT22;4472;52.092;9.820;2022-08-21T10:11:40;23.50;89.80
8872;DHT22;4472;52.092;9.820;2022-08-21T10:14:42;23.30;89.10
8872;DHT22;4472;52.092;9.820;2022-08-21T10:17:35;23.30;89.00
8872;DHT22;4472;52.092;9.820;2022-08-21T10:23:30;23.50;84.40
8872;DHT22;4472;52.092;9.820;2022-08-21T10:26:27;23.60;86.10
8872;DHT22;4472;52.092;9.820;2022-08-21T10:29:27;23.70;84.00
8872;DHT22;4472;52.092;9.820;2022-08-21T10:32:36;24.00;84.10
8872;DHT22;4472;52.092;9.820;2022-08-21T10:35:29;24.00;82.60
8872;DHT22;4472;52.092;9.820;2022-08-21T10:45:22;24.40;82.00
8872;DHT22;4472;52.092;9.820;2022-08-21T10:48:18;24.60;84.00
8872;DHT22;4472;52.092;9.820;2022-08-21T10:51:14;24.80;82.70
8872;DHT22;4472;52.092;9.820;2022-08-21T10:54:07;24.90;80.20
8872;DHT22;4472;52.092;9.820;2022-08-21T10:57:12;24.70;79.30
8872;DHT22;4472;52.092;9.820;2022-08-21T11:00:05;24.60;77.00
8872;DHT22;4472;52.092;9.820;2022-08-21T11:02:58;24.70;79.30
8872;DHT22;4472;52.092;9.820;2022-08-21T11:05:51;24.80;78.40
8872;DHT22;4472;52.092;9.820;2022-08-21T11:08:43;24.80;76.80
8872;DHT22;4472;52.092;9.820;2022-08-21T11:11:34;24.70;75.70
8872;DHT22;4472;52.092;9.820;2022-08-21T11:14:32;24.70;77.10
8872;DHT22;4472;52.092;9.820;2022-08-21T11:17:27;24.60;76.30
8872;DHT22;4472;52.092;9.820;2022-08-21T11:20:26;24.70;76.90
8872;DHT22;4472;52.092;9.820;2022-08-21T11:23:18;24.80;76.00
8872;DHT22;4472;52.092;9.820;2022-08-21T11:26:12;24.70;75.70
8872;DHT22;4472;52.092;9.820;2022-08-21T11:29:06;24.60;75.50
8872;DHT22;4472;52.092;9.820;2022-08-21T11:32:05;24.50;76.20
8872;DHT22;4472;52.092;9.820;2022-08-21T11:35:03;24.60;75.80
8872;DHT22;4472;52.092;9.820;2022-08-21T11:38:01;24.60;77.00
8872;DHT22;4472;52.092;9.820;2022-08-21T11:41:02;24.60;76.00
8872;DHT22;4472;52.092;9.820;2022-08-21T11:43:55;24.60;76.40
8872;DHT22;4472;52.092;9.820;2022-08-21T11:46:49;24.70;76.00
8872;DHT22;4472;52.092;9.820;2022-08-21T11:49:53;24.80;76.80
8872;DHT22;4472;52.092;9.820;2022-08-21T11:52:48;24.90;74.70
8872;DHT22;4472;52.092;9.820;2022-08-21T11:55:41;24.90;75.00
8872;DHT22;4472;52.092;9.820;2022-08-21T11:58:32;24.90;73.90
8872;DHT22;4472;52.092;9.820;2022-08-21T12:01:26;24.80;73.20
8872;DHT22;4472;52.092;9.820;2022-08-21T12:04:22;24.80;74.10
8872;DHT22;4472;52.092;9.820;2022-08-21T12:07:15;24.90;74.30
8872;DHT22;4472;52.092;9.820;2022-08-21T12:10:06;25.10;73.60
8872;DHT22;4472;52.092;9.820;2022-08-21T12:12:53;25.10;72.80
8872;DHT22;4472;52.092;9.820;2022-08-21T12:16:05;25.20;73.80
8872;DHT22;4472;52.092;9.820;2022-08-21T12:19:03;25.40;73.70
8872;DHT22;4472;52.092;9.820;2022-08-21T12:21:53;25.60;73.20
8872;DHT22;4472;52.092;9.820;2022-08-21T12:24:43;25.60;70.90
8872;DHT22;4472;52.092;9.820;2022-08-21T12:27:45;25.60;71.70
8872;DHT22;4472;52.092;9.820;2022-08-21T12:30:36;25.60;70.40
8872;DHT22;4472;52.092;9.820;2022-08-21T12:33:30;25.80;70.40
8872;DHT22;4472;52.092;9.820;2022-08-21T12:36:22;25.90;69.60
8872;DHT22;4472;52.092;9.820;2022-08-21T12:39:14;26.00;67.10
8872;DHT22;4472;52.092;9.820;2022-08-21T12:42:09;26.00;67.10
8872;DHT22;4472;52.092;9.820;2022-08-21T12:45:03;26.10;67.00
8872;DHT22;4472;52.092;9.820;2022-08-21T12:48:06;26.10;66.70
8872;DHT22;4472;52.092;9.820;2022-08-21T12:50:57;26.20;68.60
8872;DHT22;4472;52.092;9.820;2022-08-21T12:53:49;26.30;66.70
8872;DHT22;4472;52.092;9.820;2022-08-21T12:56:36;26.30;68.00
8872;DHT22;4472;52.092;9.820;2022-08-21T12:59:25;26.40;68.20
8872;DHT22;4472;52.092;9.820;2022-08-21T13:02:17;26.60;68.60
8872;DHT22;4472;52.092;9.820;2022-08-21T13:05:07;26.70;68.10
8872;DHT22;4472;52.092;9.820;2022-08-21T13:08:02;26.80;66.80
8872;DHT22;4472;52.092;9.820;2022-08-21T13:10:59;26.80;65.80
8872;DHT22;4472;52.092;9.820;2022-08-21T13:13:48;26.80;66.70
8872;DHT22;4472;52.092;9.820;2022-08-21T13:16:36;26.90;67.10
8872;DHT22;4472;52.092;9.820;2022-08-21T13:19:24;26.90;65.90
8872;DHT22;4472;52.092;9.820;2022-08-21T13:22:14;26.90;64.80
8872;DHT22;4472;52.092;9.820;2022-08-21T13:25:03;26.80;65.00
8872;DHT22;4472;52.092;9.820;2022-08-21T13:28:05;26.90;66.00
8872;DHT22;4472;52.092;9.820;2022-08-21T13:30:54;26.90;64.50
8872;DHT22;4472;52.092;9.820;2022-08-21T13:33:41;27.00;65.30
8872;DHT22;4472;52.092;9.820;2022-08-21T13:36:32;27.00;64.50
8872;DHT22;4472;52.092;9.820;2022-08-21T13:39:21;27.00;63.50
8872;DHT22;4472;52.092;9.820;2022-08-21T13:42:11;26.90;64.70
8872;DHT22;4472;52.092;9.820;2022-08-21T13:45:00;26.90;65.20
8872;DHT22;4472;52.092;9.820;2022-08-21T13:47:48;27.00;65.40
8872;DHT22;4472;52.092;9.820;2022-08-21T13:50:37;27.10;64.60
8872;DHT22;4472;52.092;9.820;2022-08-21T13:53:29;27.00;64.20
8872;DHT22;4472;52.092;9.820;2022-08-21T13:56:22;27.00;63.60
8872;DHT22;4472;52.092;9.820;2022-08-21T13:59:10;27.10;62.60
8872;DHT22;4472;52.092;9.820;2022-08-21T14:02:02;27.10;63.20
8872;DHT22;4472;52.092;9.820;2022-08-21T14:04:57;27.20;63.60
8872;DHT22;4472;52.092;9.820;2022-08-21T14:07:45;27.20;63.10
8872;DHT22;4472;52.092;9.820;2022-08-21T14:10:36;27.20;62.50
8872;DHT22;4472;52.092;9.820;2022-08-21T14:13:33;27.10;63.30
8872;DHT22;4472;52.092;9.820;2022-08-21T14:16:22;27.20;62.60
8872;DHT22;4472;52.092;9.820;2022-08-21T14:19:20;27.20;63.20
8872;DHT22;4472;52.092;9.820;2022-08-21T14:22:28;27.20;61.90
8872;DHT22;4472;52.092;9.820;2022-08-21T14:25:28;27.10;60.50
8872;DHT22;4472;52.092;9.820;2022-08-21T14:28:22;27.00;61.20
8872;DHT22;4472;52.092;9.820;2022-08-21T14:31:14;26.80;62.70
8872;DHT22;4472;52.092;9.820;2022-08-21T14:34:02;26.70;61.80
8872;DHT22;4472;52.092;9.820;2022-08-21T14:36:51;26.80;62.70
8872;DHT22;4472;52.092;9.820;2022-08-21T14:39:38;26.80;62.20
8872;DHT22;4472;52.092;9.820;2022-08-21T14:42:26;26.80;63.30
8872;DHT22;4472;52.092;9.820;2022-08-21T14:45:18;26.80;62.40
8872;DHT22;4472;52.092;9.820;2022-08-21T14:48:09;26.90;63.00
8872;DHT22;4472;52.092;9.820;2022-08-21T14:50:57;26.90;63.20
8872;DHT22;4472;52.092;9.820;2022-08-21T14:53:47;27.10;64.50
8872;DHT22;4472;52.092;9.820;2022-08-21T14:56:35;27.10;62.00
8872;DHT22;4472;52.092;9.820;2022-08-21T14:59:22;27.10;63.10
8872;DHT22;4472;52.092;9.820;2022-08-21T15:02:11;27.20;61.40
8872;DHT22;4472;52.092;9.820;2022-08-21T15:05:00;27.20;60.80
8872;DHT22;4472;52.092;9.820;2022-08-21T15:07:48;27.20;59.40
8872;DHT22;4472;52.092;9.820;2022-08-21T15:10:36;27.20;60.50
8872;DHT22;4472;52.092;9.820;2022-08-21T15:13:23;27.20;61.30
8872;DHT22;4472;52.092;9.820;2022-08-21T15:16:12;27.20;61.90
8872;DHT22;4472;52.092;9.820;2022-08-21T15:18:59;27.30;61.60
8872;DHT22;4472;52.092;9.820;2022-08-21T15:21:46;27.30;61.70
8872;DHT22;4472;52.092;9.820;2022-08-21T15:24:34;27.30;61.40
8872;DHT22;4472;52.092;9.820;2022-08-21T15:27:22;27.30;60.50
8872;DHT22;4472;52.092;9.820;2022-08-21T15:30:10;27.30;60.70
8872;DHT22;4472;52.092;9.820;2022-08-21T15:32:58;27.30;61.40
8872;DHT22;4472;52.092;9.820;2022-08-21T15:35:45;27.10;61.20
8872;DHT22;4472;52.092;9.820;2022-08-21T15:38:32;26.90;62.10
8872;DHT22;4472;52.092;9.820;2022-08-21T15:41:21;26.80;62.40
8872;DHT22;4472;52.092;9.820;2022-08-21T15:44:11;26.80;63.00
8872;DHT22;4472;52.092;9.820;2022-08-21T15:46:59;26.90;63.00
8872;DHT22;4472;52.092;9.820;2022-08-21T15:49:46;26.80;63.60
8872;DHT22;4472;52.092;9.820;2022-08-21T15:52:34;26.60;62.80
8872;DHT22;4472;52.092;9.820;2022-08-21T15:55:21;26.50;62.80
8872;DHT22;4472;52.092;9.820;2022-08-21T15:58:13;26.40;65.10
8872;DHT22;4472;52.092;9.820;2022-08-21T16:01:03;26.40;64.10
8872;DHT22;4472;52.092;9.820;2022-08-21T16:03:52;26.40;63.80
8872;DHT22;4472;52.092;9.820;2022-08-21T16:06:43;26.50;65.60
8872;DHT22;4472;52.092;9.820;2022-08-21T16:09:31;26.60;64.20
8872;DHT22;4472;52.092;9.820;2022-08-21T16:12:21;26.70;64.60
8872;DHT22;4472;52.092;9.820;2022-08-21T16:15:11;26.80;64.10
8872;DHT22;4472;52.092;9.820;2022-08-21T16:18:00;26.90;64.40
8872;DHT22;4472;52.092;9.820;2022-08-21T16:20:47;27.00;64.10
8872;DHT22;4472;52.092;9.820;2022-08-21T16:23:35;27.00;64.20
8872;DHT22;4472;52.092;9.820;2022-08-21T16:26:23;27.00;63.60
8872;DHT22;4472;52.092;9.820;2022-08-21T16:29:11;26.90;63.20
8872;DHT22;4472;52.092;9.820;2022-08-21T16:31:58;26.80;63.30
8872;DHT22;4472;52.092;9.820;2022-08-21T16:34:47;26.70;63.40
8872;DHT22;4472;52.092;9.820;2022-08-21T16:37:35;26.70;64.30
8872;DHT22;4472;52.092;9.820;2022-08-21T16:40:23;26.70;63.50
8872;DHT22;4472;52.092;9.820;2022-08-21T16:43:11;26.70;64.00
8872;DHT22;4472;52.092;9.820;2022-08-21T16:45:59;26.60;64.80
8872;DHT22;4472;52.092;9.820;2022-08-21T16:48:47;26.60;64.60
8872;DHT22;4472;52.092;9.820;2022-08-21T16:51:36;26.60;64.40
8872;DHT22;4472;52.092;9.820;2022-08-21T16:54:26;26.50;64.10
8872;DHT22;4472;52.092;9.820;2022-08-21T16:57:18;26.50;64.80
8872;DHT22;4472;52.092;9.820;2022-08-21T17:00:08;26.40;65.20
8872;DHT22;4472;52.092;9.820;2022-08-21T17:02:56;26.30;65.30
8872;DHT22;4472;52.092;9.820;2022-08-21T17:05:44;26.30;65.20
8872;DHT22;4472;52.092;9.820;2022-08-21T17:08:33;26.10;64.70
8872;DHT22;4472;52.092;9.820;2022-08-21T17:11:27;26.00;65.40
8872;DHT22;4472;52.092;9.820;2022-08-21T17:14:20;25.90;65.10
8872;DHT22;4472;52.092;9.820;2022-08-21T17:17:09;25.80;65.90
8872;DHT22;4472;52.092;9.820;2022-08-21T17:19:56;25.60;65.90
8872;DHT22;4472;52.092;9.820;2022-08-21T17:22:43;25.50;66.40
8872;DHT22;4472;52.092;9.820;2022-08-21T17:25:34;25.40;67.00
8872;DHT22;4472;52.092;9.820;2022-08-21T17:28:28;25.20;67.20
8872;DHT22;4472;52.092;9.820;2022-08-21T17:31:16;25.10;68.10
8872;DHT22;4472;52.092;9.820;2022-08-21T17:34:03;25.00;68.80
8872;DHT22;4472;52.092;9.820;2022-08-21T17:36:51;24.90;69.40
8872;DHT22;4472;52.092;9.820;2022-08-21T17:39:38;24.70;69.20
8872;DHT22;4472;52.092;9.820;2022-08-21T17:42:29;24.60;69.60
8872;DHT22;4472;52.092;9.820;2022-08-21T17:45:18;24.50;69.50
8872;DHT22;4472;52.092;9.820;2022-08-21T17:48:08;24.40;69.80
8872;DHT22;4472;52.092;9.820;2022-08-21T17:50:55;24.30;71.20
8872;DHT22;4472;52.092;9.820;2022-08-21T17:53:42;24.20;71.40
8872;DHT22;4472;52.092;9.820;2022-08-21T17:56:32;24.10;72.30
8872;DHT22;4472;52.092;9.820;2022-08-21T17:59:21;24.00;72.90
8872;DHT22;4472;52.092;9.820;2022-08-21T18:02:09;23.90;73.30
8872;DHT22;4472;52.092;9.820;2022-08-21T18:04:56;23.80;74.00
8872;DHT22;4472;52.092;9.820;2022-08-21T18:07:43;23.70;74.40
8872;DHT22;4472;52.092;9.820;2022-08-21T18:10:31;23.70;73.80
8872;DHT22;4472;52.092;9.820;2022-08-21T18:13:22;23.60;74.80
8872;DHT22;4472;52.092;9.820;2022-08-21T18:16:13;23.50;75.00
8872;DHT22;4472;52.092;9.820;2022-08-21T18:19:06;23.50;75.20
8872;DHT22;4472;52.092;9.820;2022-08-21T18:22:01;23.30;75.60
8872;DHT22;4472;52.092;9.820;2022-08-21T18:24:55;23.30;76.40
8872;DHT22;4472;52.092;9.820;2022-08-21T18:27:43;23.20;77.20
8872;DHT22;4472;52.092;9.820;2022-08-21T18:30:42;23.00;77.10
8872;DHT22;4472;52.092;9.820;2022-08-21T18:33:30;22.90;77.40
8872;DHT22;4472;52.092;9.820;2022-08-21T18:36:18;22.80;77.80
8872;DHT22;4472;52.092;9.820;2022-08-21T18:39:05;22.60;78.30
8872;DHT22;4472;52.092;9.820;2022-08-21T18:41:52;22.50;79.00
8872;DHT22;4472;52.092;9.820;2022-08-21T18:44:43;22.30;79.20